EW8368 Weather Reports


time (UTC)temp
C
wind
direction
speed
KPH
gust
KPH
rain 1hr
cm
rain 24hr
cm
rain mn
cm
humidity
%
barometer
mb
20200229083717 13 0.0 0.0 0.00 0.00 0.00 61 1015.1
20200229082717 13 90 3.2 4.8 0.00 0.00 0.00 61 1015.1
20200229081717 12 90 1.6 3.2 0.00 0.00 0.00 58 1015.1
20200229080717 12 90 1.6 3.2 0.00 0.00 0.00 60 1015.2
20200229075717 13 90 1.6 3.2 0.00 0.00 0.00 58 1015.4
20200229074717 13 90 1.6 3.2 0.00 0.00 0.00 56 1015.5
20200229073717 13 90 4.8 4.8 0.00 0.00 0.00 56 1015.6
20200229072717 13 112 4.8 4.8 0.00 0.00 0.00 58 1015.8
20200229071717 12 112 3.2 4.8 0.00 0.00 0.00 61 1016.0
20200229070717 12 135 3.2 4.8 0.00 0.00 0.00 63 1016.1
20200229065715 12 112 1.6 1.6 0.00 0.00 0.00 63 1015.9
20200229064715 12 112 1.6 1.6 0.00 0.00 0.00 63 1016.0
20200229063715 12 112 3.2 3.2 0.00 0.00 0.00 63 1016.0
20200229062715 12 112 1.6 1.6 0.00 0.00 0.00 60 1016.0
20200229061715 12 0.0 1.6 0.00 0.00 0.00 58 1016.0
20200229060715 12 112 1.6 3.2 0.00 0.00 0.00 57 1016.2
20200229055717 12 112 3.2 4.8 0.00 0.00 0.00 59 1016.3
20200229054717 12 0.0 0.0 0.00 0.00 0.00 66 1016.3
20200229053717 12 0.0 0.0 0.00 0.00 0.00 67 1016.3
20200229052717 12 0.0 0.0 0.00 0.00 0.00 64 1016.1
20200229051717 13 0.0 0.0 0.00 0.00 0.00 54 1015.9
20200229050717 13 0.0 0.0 0.00 0.00 0.00 56 1015.9
20200229045717 13 0.0 0.0 0.00 0.00 0.00 53 1015.9
20200229044717 13 0.0 0.0 0.00 0.00 0.00 62 1015.8
20200229043717 13 0.0 0.0 0.00 0.00 0.00 57 1015.8
20200229042717 13 0.0 1.6 0.00 0.00 0.00 53 1015.9
20200229041717 15 0.0 1.6 0.00 0.00 0.00 58 1016.0
20200229040717 15 0.0 0.0 0.00 0.00 0.00 50 1016.2
20200229035717 16 0.0 0.0 0.00 0.00 0.00 45 1016.1
20200229034717 16 180 1.6 1.6 0.00 0.00 0.00 47 1016.0
20200229033717 16 180 1.6 1.6 0.00 0.00 0.00 45 1015.9
20200229032717 16 0.0 0.0 0.00 0.00 0.00 50 1015.8
20200229031717 17 0.0 1.6 0.00 0.00 0.00 43 1015.7
20200229030716 17 0.0 0.0 0.00 0.00 0.00 41 1015.6
20200229025716 18 0.0 0.0 0.00 0.00 0.00 44 1015.5
20200229024717 18 180 1.6 3.2 0.00 0.00 0.00 39 1015.3
20200229023717 18 180 3.2 6.4 0.00 0.00 0.00 37 1015.2
20200229022717 19 247 1.6 3.2 0.00 0.00 0.00 38 1015.1
20200229021716 21 0.0 1.6 0.00 0.00 0.00 36 1015.0
20200229020717 21 0 1.6 1.6 0.00 0.00 0.00 30 1015.0
20200229015717 22 247 1.6 1.6 0.00 0.00 0.00 31 1014.8
20200229014717 23 247 1.6 1.6 0.00 0.00 0.00 30 1014.7
20200229013717 23 247 3.2 4.8 0.00 0.00 0.00 28 1014.9
20200229012716 24 247 3.2 4.8 0.00 0.00 0.00 28 1014.8
20200229011716 25 247 4.8 6.4 0.00 0.00 0.00 24 1014.8
20200229010718 25 247 6.4 8.0 0.00 0.00 0.00 23 1015.0
20200229005716 26 247 4.8 6.4 0.00 0.00 0.00 23 1014.8
20200229004717 26 225 4.8 6.4 0.00 0.00 0.00 23 1014.9
20200229003716 26 225 6.4 6.4 0.00 0.00 0.00 23 1014.7
20200229002716 27 225 6.4 8.0 0.00 0.00 0.00 23 1014.8
20200229001716 27 225 8.0 12.9 0.00 0.00 0.00 21 1014.9
20200229000716 27 225 8.0 9.7 0.00 0.00 0.00 18 1015.0
20200228235716 28 225 6.4 8.0 0.00 0.00 0.00 17 1015.1
20200228234717 28 247 9.7 12.9 0.00 0.00 0.00 18 1015.1
20200228233716 28 225 9.7 14.5 0.00 0.00 0.00 17 1015.1
20200228232716 28 0 4.8 8.0 0.00 0.00 0.00 15 1015.0
20200228231716 28 0 4.8 6.4 0.00 0.00 0.00 15 1015.0
20200228230716 28 0 4.8 6.4 0.00 0.00 0.00 15 1014.9
20200228225716 28 0 3.2 4.8 0.00 0.00 0.00 18 1015.0
20200228224716 28 0 3.2 4.8 0.00 0.00 0.00 28 1014.9
20200228223718 28 0 4.8 6.4 0.00 0.00 0.00 19 1014.9
20200228222716 28 0 3.2 8.0 0.00 0.00 0.00 18 1015.2
20200228221717 28 0 6.4 9.7 0.00 0.00 0.00 18 1015.3
20200228220716 28 0 6.4 9.7 0.00 0.00 0.00 17 1015.3
20200228215716 28 270 9.7 12.9 0.00 0.00 0.00 18 1015.4
20200228214717 28 0 3.2 4.8 0.00 0.00 0.00 16 1015.3
20200228213716 28 0 4.8 6.4 0.00 0.00 0.00 16 1015.3
20200228212716 28 0 6.4 9.7 0.00 0.00 0.00 17 1015.4
20200228211716 28 0 1.6 1.6 0.00 0.00 0.00 24 1015.3
20200228210716 28 270 1.6 3.2 0.00 0.00 0.00 24 1015.3
20200228205716 28 112 3.2 4.8 0.00 0.00 0.00 16 1015.3
20200228204716 28 157 3.2 6.4 0.00 0.00 0.00 16 1015.2
20200228203716 28 67 3.2 4.8 0.00 0.00 0.00 17 1015.2
20200228202716 29 0 4.8 6.4 0.00 0.00 0.00 16 1015.4
20200228201716 28 157 3.2 4.8 0.00 0.00 0.00 17 1015.5
20200228200716 28 67 6.4 6.4 0.00 0.00 0.00 17 1015.6
20200228193716 27 135 1.6 3.2 0.00 0.00 0.00 17 1016.2
20200228192716 27 112 3.2 4.8 0.00 0.00 0.00 16 1016.3
20200228191716 26 135 4.8 6.4 0.00 0.00 0.00 17 1016.7
20200228190716 26 90 1.6 3.2 0.00 0.00 0.00 16 1017.0
20200228185716 26 0 3.2 3.2 0.00 0.00 0.00 17 1017.1
20200228184716 26 0 4.8 6.4 0.00 0.00 0.00 17 1017.2
20200228183716 26 0 1.6 3.2 0.00 0.00 0.00 18 1017.3
20200228182716 25 0 3.2 4.8 0.00 0.00 0.00 26 1017.3
20200228181717 26 0 3.2 4.8 0.00 0.00 0.00 24 1017.1
20200228180716 25 0.0 1.6 0.00 0.00 0.00 22 1017.4
20200228175716 25 0 1.6 3.2 0.00 0.00 0.00 27 1017.3
20200228174716 24 135 1.6 3.2 0.00 0.00 0.00 24 1017.5
20200228173716 23 135 3.2 3.2 0.00 0.00 0.00 24 1017.6
20200228172716 23 0.0 1.6 0.00 0.00 0.00 23 1017.5
20200228171716 22 112 1.6 4.8 0.00 0.00 0.00 29 1017.4
20200228170716 22 112 3.2 6.4 0.00 0.00 0.00 29 1017.5
20200228165716 21 135 4.8 8.0 0.00 0.00 0.00 30 1017.7
20200228164716 20 0 1.6 3.2 0.00 0.00 0.00 34 1017.8
20200228163716 20 0 1.6 3.2 0.00 0.00 0.00 44 1017.7
20200228162716 19 0.0 1.6 0.00 0.00 0.00 35 1017.6
20200228161715 17 0.0 1.6 0.00 0.00 0.00 45 1017.5
20200228160716 16 90 3.2 4.8 0.00 0.00 0.00 46 1017.4
20200228155715 16 90 3.2 4.8 0.00 0.00 0.00 48 1017.2
20200228154715 15 112 1.6 3.2 0.00 0.00 0.00 48 1017.2
20200228153715 15 0.0 0.0 0.00 0.00 0.00 57 1017.0
20200228152716 15 90 1.6 3.2 0.00 0.00 0.00 63 1016.8
20200228151716 14 67 3.2 3.2 0.00 0.00 0.00 54 1016.9
20200228150716 13 0.0 3.2 0.00 0.00 0.00 55 1016.7
20200228145716 13 45 3.2 4.8 0.00 0.00 0.00 52 1016.5
20200228144715 13 0.0 0.0 0.00 0.00 0.00 47 1016.6
20200228143715 13 45 1.6 3.2 0.00 0.00 0.00 46 1016.4
20200228142715 12 45 1.6 1.6 0.00 0.00 0.00 49 1016.3
20200228141715 12 22 4.8 6.4 0.00 0.00 0.00 50 1015.8
20200228140715 13 22 4.8 6.4 0.00 0.00 0.00 48 1016.0
20200228135716 12 0 3.2 6.4 0.00 0.00 0.00 50 1016.0
20200228134715 12 45 3.2 4.8 0.00 0.00 0.00 54 1015.9
20200228133715 11 67 4.8 4.8 0.00 0.00 0.00 59 1016.0
20200228132715 10 67 4.8 4.8 0.00 0.00 0.00 63 1015.9
20200228131715 10 67 3.2 3.2 0.00 0.00 0.00 63 1015.9
20200228130716 10 0 1.6 1.6 0.00 0.00 0.00 63 1015.8
20200228125715 10 0 3.2 3.2 0.00 0.00 0.00 64 1015.8
20200228124715 9 0 1.6 1.6 0.00 0.00 0.00 66 1015.8
20200228123715 9 0 1.6 1.6 0.00 0.00 0.00 64 1015.9
20200228122715 10 0 1.6 3.2 0.00 0.00 0.00 63 1015.7
20200228121715 10 0 1.6 3.2 0.00 0.00 0.00 64 1015.6
20200228120715 10 0 1.6 1.6 0.00 0.00 0.00 64 1015.7
20200228115715 10 0 1.6 3.2 0.00 0.00 0.00 65 1015.6
20200228114715 10 67 4.8 6.4 0.00 0.00 0.00 64 1015.5
20200228113715 10 0 1.6 3.2 0.00 0.00 0.00 67 1015.6
20200228112715 10 337 1.6 1.6 0.00 0.00 0.00 62 1015.7
20200228111715 10 337 1.6 1.6 0.00 0.00 0.00 63 1015.7
20200228110715 10 337 1.6 3.2 0.00 0.00 0.00 65 1015.6
20200228105715 10 0.0 0.0 0.00 0.00 0.00 66 1015.4
20200228104715 11 0.0 0.0 0.00 0.00 0.00 68 1015.4
20200228103715 10 67 1.6 3.2 0.00 0.00 0.00 66 1015.4
20200228102717 10 0.0 0.0 0.00 0.00 0.00 66 1015.2
20200228101717 11 0.0 0.0 0.00 0.00 0.00 65 1015.0
20200228100717 11 67 1.6 3.2 0.00 0.00 0.00 63 1015.0
20200228095717 11 0.0 0.0 0.00 0.00 0.00 69 1015.0
20200228094717 11 0.0 0.0 0.00 0.00 0.00 62 1015.1
20200228093717 11 0.0 0.0 0.00 0.00 0.00 58 1015.0
20200228092717 12 0.0 0.0 0.00 0.00 0.00 62 1014.9
20200228091717 12 0.0 0.0 0.00 0.00 0.00 55 1015.1
20200228090717 12 112 1.6 1.6 0.00 0.00 0.00 56 1015.2
20200228085717 12 0.0 0.0 0.00 0.00 0.00 52 1015.3